This is the latest recevied weather packets stored in our database for station/object IR1ZYZ-3. If no packets are shown the sender has not sent any weather packets the latest 10 day(s).
| Time | Temp. | Humidity | Pressure | Rain* | Wind** | Luminosity | Snow |
|---|---|---|---|---|---|---|---|
| 1777547790 | 29.44° C | 34% | 1018.7 hPa | - | - | - | - |
| 1777547184 | 28.89° C | 37% | 1018.8 hPa | - | - | - | - |
| 1777546579 | 28.89° C | 37% | 1019 hPa | - | - | - | - |
| 1777545368 | 27.78° C | 37% | 1019.2 hPa | - | - | - | - |
| 1777545368 | 27.78° C | 37% | 1019.2 hPa | - | - | - | - |
| 1777544763 | 30° C | 35% | 1018.9 hPa | - | - | - | - |
| 1777544158 | 30.56° C | 33% | 1018.7 hPa | - | - | - | - |
| 1777543552 | 29.44° C | 37% | 1018.8 hPa | - | - | - | - |
| 1777542947 | 28.33° C | 37% | 1018.8 hPa | - | - | - | - |
| 1777542342 | 27.22° C | 42% | 1019.1 hPa | - | - | - | - |
| 1777541737 | 26.11° C | 46% | 1019.2 hPa | - | - | - | - |
| 1777541131 | 25° C | 46% | 1019.3 hPa | - | - | - | - |
| 1777540525 | 24.44° C | 48% | 1019.2 hPa | - | - | - | - |
| 1777539921 | 23.89° C | 49% | 1019.3 hPa | - | - | - | - |
| 1777539316 | 22.22° C | - | - | - | - | - | - |
| 1777539316 | 22.22° C | 56% | 1019.3 hPa | - | - | - | - |
| 1777538711 | 20.56° C | 59% | 1019.6 hPa | - | - | - | - |
| 1777538106 | 22.22° C | 54% | 1019.3 hPa | - | - | - | - |
| 1777537500 | 23.33° C | 54% | 1019 hPa | - | - | - | - |
| 1777536896 | 22.78° C | 59% | 1019.1 hPa | - | - | - | - |
| 1777536291 | 21.67° C | 61% | 1019 hPa | - | - | - | - |
| 1777535685 | 22.22° C | 61% | 1018.9 hPa | - | - | - | - |
| 1777535081 | 21.11° C | 72% | 1018.9 hPa | - | - | - | - |
| 1777534476 | 19.44° C | 84% | 1019.2 hPa | - | - | - | - |
| 1777533871 | 18.33° C | 94% | 1019.3 hPa | - | - | - | - |
* Rain since midnight (hover to see other rain measurements)
** Current wind speed in m/s (hover to see current wind gust speed)